Time;durP1;ratioP1;P1;durP2;ratioP2;P2;SDS_P1;SDS_P2;PMS_P1;PMS_P2;Temp;Humidity;BMP_temperature;BMP_pressure;BME280_temperature;BME280_humidity;BME280_pressure;Samples;Min_cycle;Max_cycle;Signal;HPM_P1;HPM_P2
2023/01/28 00:00:08;;;;;;;4.97;4.47;;;;;;;;;;521212;28;1389;-64
2023/01/28 00:00:24;;;;;;;5.13;4.63;;;;;;;;;;519068;28;1235;-64
2023/01/28 00:00:39;;;;;;;5.10;4.60;;;;;;;;;;520431;28;1222;-64
2023/01/28 00:00:54;;;;;;;5.17;4.67;;;;;;;;;;524219;28;1665;-64
2023/01/28 00:01:12;;;;;;;5.20;4.70;;;;;;;;;;524896;28;2084;-64
2023/01/28 00:01:27;;;;;;;5.10;4.60;;;;;;;;;;520730;28;1504;-64
2023/01/28 00:01:43;;;;;;;5.13;4.68;;;;;;;;;;522076;28;1548;-64
2023/01/28 00:01:58;;;;;;;5.07;4.60;;;;;;;;;;521117;28;1456;-64
2023/01/28 00:02:14;;;;;;;5.00;4.60;;;;;;;;;;520392;28;1179;-64
2023/01/28 00:02:30;;;;;;;5.00;4.60;;;;;;;;;;521806;28;1423;-64
2023/01/28 00:02:47;;;;;;;4.85;4.45;;;;;;;;;;524732;28;1362;-64
2023/01/28 00:03:02;;;;;;;4.80;4.40;;;;;;;;;;523923;28;1198;-64
2023/01/28 00:03:23;;;;;;;4.90;4.50;;;;;;;;;;379965;28;10001228;-64
2023/01/28 00:03:39;;;;;;;5.30;4.80;;;;;;;;;;521561;28;1223;-63
2023/01/28 00:03:54;;;;;;;5.43;4.93;;;;;;;;;;521928;28;1348;-64
2023/01/28 00:04:10;;;;;;;5.43;4.93;;;;;;;;;;521184;28;1378;-64
2023/01/28 00:04:25;;;;;;;5.27;4.80;;;;;;;;;;518298;28;1238;-63
2023/01/28 00:04:40;;;;;;;5.13;4.70;;;;;;;;;;515962;28;1355;-64
2023/01/28 00:04:55;;;;;;;5.05;4.65;;;;;;;;;;519403;28;1261;-64
2023/01/28 00:05:11;;;;;;;5.17;4.77;;;;;;;;;;520909;28;1332;-63
2023/01/28 00:05:28;;;;;;;5.27;4.77;;;;;;;;;;520955;28;1308;-64
2023/01/28 00:05:43;;;;;;;5.25;4.75;;;;;;;;;;520827;28;1310;-63
2023/01/28 00:06:04;;;;;;;5.10;4.70;;;;;;;;;;519451;28;1365;-64
2023/01/28 00:06:19;;;;;;;5.30;4.80;;;;;;;;;;520656;28;1135;-64
2023/01/28 00:06:35;;;;;;;5.40;4.90;;;;;;;;;;520891;28;1304;-63
2023/01/28 00:06:50;;;;;;;5.60;5.10;;;;;;;;;;520406;28;1216;-64
2023/01/28 00:07:05;;;;;;;5.50;5.00;;;;;;;;;;517674;28;1207;-64
2023/01/28 00:07:21;;;;;;;5.43;4.93;;;;;;;;;;518814;28;1373;-64
2023/01/28 00:07:36;;;;;;;5.35;4.85;;;;;;;;;;516942;28;1219;-64
2023/01/28 00:07:52;;;;;;;5.20;4.80;;;;;;;;;;519619;28;1419;-64
2023/01/28 00:08:07;;;;;;;5.47;5.00;;;;;;;;;;521208;28;1203;-64
2023/01/28 00:08:22;;;;;;;5.70;5.20;;;;;;;;;;520912;28;1349;-64
2023/01/28 00:08:38;;;;;;;5.63;5.17;;;;;;;;;;523809;28;1273;-64
2023/01/28 00:08:54;;;;;;;5.22;4.80;;;;;;;;;;523353;28;1267;-64
2023/01/28 00:09:10;;;;;;;5.28;4.80;;;;;;;;;;521459;28;1493;-64
2023/01/28 00:09:25;;;;;;;5.60;5.10;;;;;;;;;;519977;28;1158;-64
2023/01/28 00:09:40;;;;;;;5.50;5.00;;;;;;;;;;519468;28;1512;-64
2023/01/28 00:09:55;;;;;;;5.60;5.10;;;;;;;;;;519218;28;1212;-64
2023/01/28 00:10:11;;;;;;;5.73;5.23;;;;;;;;;;519048;28;1194;-64
2023/01/28 00:10:26;;;;;;;5.72;5.22;;;;;;;;;;518685;28;1476;-64
2023/01/28 00:10:44;;;;;;;5.70;5.20;;;;;;;;;;518268;28;1289;-63
2023/01/28 00:11:01;;;;;;;5.47;4.97;;;;;;;;;;517450;28;1482;-64
2023/01/28 00:11:16;;;;;;;5.78;5.20;;;;;;;;;;517363;28;1253;-64
2023/01/28 00:11:32;;;;;;;5.80;5.30;;;;;;;;;;518895;28;1613;-64
2023/01/28 00:11:47;;;;;;;5.80;5.30;;;;;;;;;;516207;28;1263;-64
2023/01/28 00:12:03;;;;;;;5.90;5.40;;;;;;;;;;519451;28;1227;-64
2023/01/28 00:12:18;;;;;;;6.00;5.50;;;;;;;;;;520690;28;1264;-64
2023/01/28 00:12:34;;;;;;;5.87;5.37;;;;;;;;;;520119;28;1333;-64
2023/01/28 00:12:49;;;;;;;5.93;5.32;;;;;;;;;;518706;28;1258;-64
2023/01/28 00:13:11;;;;;;;5.80;5.30;;;;;;;;;;520614;28;1259;-64
2023/01/28 00:13:27;;;;;;;5.90;5.40;;;;;;;;;;518795;28;1434;-64
2023/01/28 00:13:43;;;;;;;5.97;5.47;;;;;;;;;;520646;28;1273;-64
2023/01/28 00:13:58;;;;;;;5.90;5.40;;;;;;;;;;521707;28;1415;-64
2023/01/28 00:14:14;;;;;;;5.63;5.13;;;;;;;;;;521399;28;1250;-64
2023/01/28 00:14:29;;;;;;;5.67;5.17;;;;;;;;;;521130;28;1404;-64
2023/01/28 00:14:47;;;;;;;5.65;5.15;;;;;;;;;;519226;28;1436;-64
2023/01/28 00:15:03;;;;;;;5.15;4.72;;;;;;;;;;520964;28;1297;-64
2023/01/28 00:15:18;;;;;;;5.30;4.80;;;;;;;;;;518991;28;1226;-64
2023/01/28 00:15:34;;;;;;;5.50;5.00;;;;;;;;;;518569;28;1458;-64
2023/01/28 00:15:59;;;;;;;5.17;4.73;;;;;;;;;;516241;28;1401;-64
2023/01/28 00:16:15;;;;;;;5.10;4.60;;;;;;;;;;516395;28;1501;-64
2023/01/28 00:16:30;;;;;;;5.27;4.77;;;;;;;;;;519667;28;1408;-64
2023/01/28 00:16:45;;;;;;;5.40;4.90;;;;;;;;;;518926;28;1471;-64
2023/01/28 00:17:04;;;;;;;5.50;5.00;;;;;;;;;;519513;28;1117;-65
2023/01/28 00:17:19;;;;;;;5.50;5.00;;;;;;;;;;517277;28;1363;-65
2023/01/28 00:17:35;;;;;;;5.20;4.70;;;;;;;;;;519640;28;1403;-65
2023/01/28 00:17:51;;;;;;;5.20;4.78;;;;;;;;;;517547;28;1394;-64
2023/01/28 00:18:06;;;;;;;5.40;5.00;;;;;;;;;;518407;28;1474;-64
2023/01/28 00:18:22;;;;;;;5.40;4.97;;;;;;;;;;520243;28;1426;-64
2023/01/28 00:18:37;;;;;;;5.53;5.03;;;;;;;;;;517449;28;1991;-65
2023/01/28 00:18:53;;;;;;;5.90;5.40;;;;;;;;;;519865;28;1130;-65
2023/01/28 00:19:09;;;;;;;6.13;5.53;;;;;;;;;;519352;28;1547;-64
2023/01/28 00:19:24;;;;;;;6.17;5.60;;;;;;;;;;521512;28;1399;-65
2023/01/28 00:19:39;;;;;;;5.97;5.47;;;;;;;;;;519979;28;1191;-64
2023/01/28 00:19:55;;;;;;;5.90;5.40;;;;;;;;;;517994;28;1392;-64
2023/01/28 00:20:10;;;;;;;6.17;5.67;;;;;;;;;;519398;28;1303;-64
2023/01/28 00:20:26;;;;;;;6.00;5.50;;;;;;;;;;521627;28;1167;-64
2023/01/28 00:20:41;;;;;;;5.73;5.23;;;;;;;;;;519113;28;1275;-64
2023/01/28 00:20:58;;;;;;;5.57;5.07;;;;;;;;;;518274;28;1189;-64
2023/01/28 00:21:14;;;;;;;5.50;5.00;;;;;;;;;;519410;28;1366;-64
2023/01/28 00:21:30;;;;;;;5.57;5.07;;;;;;;;;;517457;28;1467;-64
2023/01/28 00:21:45;;;;;;;5.50;5.00;;;;;;;;;;519883;28;1402;-64
2023/01/28 00:22:01;;;;;;;5.87;5.33;;;;;;;;;;518725;28;1331;-64
2023/01/28 00:22:16;;;;;;;5.97;5.38;;;;;;;;;;521427;28;1330;-64
2023/01/28 00:22:31;;;;;;;5.60;5.10;;;;;;;;;;524706;28;1397;-64
2023/01/28 00:22:48;;;;;;;5.80;5.30;;;;;;;;;;521602;28;1401;-64
2023/01/28 00:23:03;;;;;;;6.00;5.50;;;;;;;;;;518603;28;1411;-63
2023/01/28 00:23:18;;;;;;;5.95;5.45;;;;;;;;;;518230;28;1246;-63
2023/01/28 00:23:35;;;;;;;6.20;5.60;;;;;;;;;;521421;28;1337;-64
2023/01/28 00:23:53;;;;;;;6.13;5.50;;;;;;;;;;523137;28;1388;-64
2023/01/28 00:24:08;;;;;;;6.00;5.50;;;;;;;;;;522155;28;999;-64
2023/01/28 00:24:24;;;;;;;6.07;5.47;;;;;;;;;;520047;28;1197;-64
2023/01/28 00:24:39;;;;;;;5.90;5.40;;;;;;;;;;521788;28;1424;-63
2023/01/28 00:24:54;;;;;;;5.80;5.30;;;;;;;;;;519769;28;1372;-64
2023/01/28 00:25:10;;;;;;;5.70;5.20;;;;;;;;;;519207;28;1149;-64
2023/01/28 00:25:25;;;;;;;5.77;5.27;;;;;;;;;;520549;28;1238;-64
2023/01/28 00:25:40;;;;;;;5.93;5.40;;;;;;;;;;519094;28;1481;-64
2023/01/28 00:26:00;;;;;;;5.93;5.32;;;;;;;;;;518273;28;1339;-64
2023/01/28 00:26:16;;;;;;;5.80;5.30;;;;;;;;;;518403;28;1413;-64
2023/01/28 00:26:31;;;;;;;5.83;5.33;;;;;;;;;;521577;28;1273;-64
2023/01/28 00:26:46;;;;;;;5.60;5.10;;;;;;;;;;523189;28;1377;-64
2023/01/28 00:27:02;;;;;;;5.78;5.28;;;;;;;;;;521995;28;1093;-64
2023/01/28 00:27:17;;;;;;;5.70;5.20;;;;;;;;;;523601;28;1155;-64
2023/01/28 00:27:32;;;;;;;5.60;5.10;;;;;;;;;;521253;28;1311;-64
2023/01/28 00:27:49;;;;;;;5.78;5.28;;;;;;;;;;518415;28;1354;-64
2023/01/28 00:28:04;;;;;;;5.88;5.28;;;;;;;;;;520645;28;1162;-64
2023/01/28 00:28:21;;;;;;;5.73;5.23;;;;;;;;;;519953;28;1191;-64
2023/01/28 00:28:36;;;;;;;5.75;5.25;;;;;;;;;;517672;28;1224;-64
2023/01/28 00:28:51;;;;;;;5.70;5.20;;;;;;;;;;516623;28;1216;-64
2023/01/28 00:29:07;;;;;;;5.80;5.30;;;;;;;;;;519524;28;1366;-64
2023/01/28 00:29:22;;;;;;;5.93;5.40;;;;;;;;;;520560;28;1214;-64
2023/01/28 00:29:37;;;;;;;6.00;5.50;;;;;;;;;;519140;28;1309;-64
2023/01/28 00:29:53;;;;;;;5.93;5.43;;;;;;;;;;520136;28;1397;-64
2023/01/28 00:30:09;;;;;;;5.72;5.22;;;;;;;;;;521926;28;1318;-64
2023/01/28 00:30:25;;;;;;;5.82;5.32;;;;;;;;;;521358;28;1391;-64
2023/01/28 00:30:40;;;;;;;5.90;5.30;;;;;;;;;;518501;28;1334;-64
2023/01/28 00:30:55;;;;;;;5.88;5.28;;;;;;;;;;518589;28;1367;-64
2023/01/28 00:31:16;;;;;;;5.80;5.30;;;;;;;;;;518958;28;1390;-65
2023/01/28 00:31:33;;;;;;;5.50;5.00;;;;;;;;;;520236;28;1038;-64
2023/01/28 00:31:48;;;;;;;5.40;5.00;;;;;;;;;;518392;28;1310;-64
2023/01/28 00:32:04;;;;;;;5.40;5.00;;;;;;;;;;519634;28;1246;-64
2023/01/28 00:32:19;;;;;;;5.60;5.10;;;;;;;;;;519878;28;1327;-64
2023/01/28 00:32:34;;;;;;;5.57;5.07;;;;;;;;;;516402;28;1323;-64
2023/01/28 00:32:49;;;;;;;5.30;4.80;;;;;;;;;;519705;28;1207;-64
2023/01/28 00:33:05;;;;;;;5.60;5.10;;;;;;;;;;519032;28;1181;-65
2023/01/28 00:33:20;;;;;;;5.65;5.10;;;;;;;;;;521587;28;1395;-64
2023/01/28 00:33:36;;;;;;;5.77;5.17;;;;;;;;;;519538;28;1135;-64
2023/01/28 00:33:53;;;;;;;5.95;5.45;;;;;;;;;;523274;28;1345;-64
2023/01/28 00:34:08;;;;;;;5.70;5.20;;;;;;;;;;523349;28;1472;-65
2023/01/28 00:34:24;;;;;;;5.60;5.10;;;;;;;;;;521019;28;1317;-65
2023/01/28 00:34:39;;;;;;;5.70;5.20;;;;;;;;;;522494;28;1211;-65
2023/01/28 00:34:54;;;;;;;5.50;5.00;;;;;;;;;;522404;28;1265;-65
2023/01/28 00:35:10;;;;;;;5.30;4.80;;;;;;;;;;521892;28;1369;-64
2023/01/28 00:35:25;;;;;;;5.40;4.90;;;;;;;;;;520432;28;1209;-65
2023/01/28 00:35:41;;;;;;;5.50;5.00;;;;;;;;;;521383;28;1138;-64
2023/01/28 00:35:58;;;;;;;5.45;4.95;;;;;;;;;;518609;28;1167;-64
2023/01/28 00:36:14;;;;;;;5.30;4.90;;;;;;;;;;520889;28;1355;-65
2023/01/28 00:36:29;;;;;;;5.55;5.05;;;;;;;;;;522968;28;1239;-64
2023/01/28 00:36:45;;;;;;;5.77;5.27;;;;;;;;;;520560;28;1188;-65
2023/01/28 00:37:00;;;;;;;5.78;5.28;;;;;;;;;;522688;28;1242;-65
2023/01/28 00:37:15;;;;;;;5.77;5.27;;;;;;;;;;524735;28;1473;-64
2023/01/28 00:37:30;;;;;;;6.00;5.47;;;;;;;;;;523740;28;1183;-64
2023/01/28 00:37:46;;;;;;;5.80;5.30;;;;;;;;;;523858;28;1242;-65
2023/01/28 00:38:03;;;;;;;5.57;5.07;;;;;;;;;;523004;28;1198;-64
2023/01/28 00:38:18;;;;;;;5.80;5.00;;;;;;;;;;518659;28;1403;-65
2023/01/28 00:38:34;;;;;;;5.53;4.97;;;;;;;;;;518894;28;1910;-65
2023/01/28 00:38:51;;;;;;;5.60;5.10;;;;;;;;;;520279;28;1350;-65
2023/01/28 00:39:06;;;;;;;5.80;5.30;;;;;;;;;;520243;28;1290;-64
2023/01/28 00:39:23;;;;;;;5.90;5.40;;;;;;;;;;518180;28;1461;-65
2023/01/28 00:39:39;;;;;;;5.78;5.28;;;;;;;;;;518760;28;1494;-65
2023/01/28 00:39:54;;;;;;;5.67;5.17;;;;;;;;;;517939;28;1085;-65
2023/01/28 00:40:10;;;;;;;5.50;5.00;;;;;;;;;;519492;28;1191;-64
2023/01/28 00:40:25;;;;;;;5.57;5.07;;;;;;;;;;520424;28;1353;-64
2023/01/28 00:40:41;;;;;;;5.60;5.10;;;;;;;;;;517618;28;1194;-65
2023/01/28 00:41:06;;;;;;;5.60;5.10;;;;;;;;;;516954;28;1176;-64
2023/01/28 00:41:24;;;;;;;5.53;5.03;;;;;;;;;;519401;28;1254;-64
2023/01/28 00:41:39;;;;;;;5.57;5.07;;;;;;;;;;521072;28;1388;-64
2023/01/28 00:41:55;;;;;;;5.45;4.95;;;;;;;;;;518374;28;1226;-64
2023/01/28 00:42:10;;;;;;;5.30;4.80;;;;;;;;;;521099;28;1227;-64
2023/01/28 00:42:25;;;;;;;5.27;4.87;;;;;;;;;;520860;28;1219;-64
2023/01/28 00:42:41;;;;;;;5.40;4.90;;;;;;;;;;518495;28;1407;-64
2023/01/28 00:42:56;;;;;;;5.47;4.97;;;;;;;;;;519511;28;1313;-64
2023/01/28 00:43:12;;;;;;;5.55;5.05;;;;;;;;;;520432;28;1094;-64
2023/01/28 00:43:27;;;;;;;5.97;5.47;;;;;;;;;;519520;28;1432;-64
2023/01/28 00:43:45;;;;;;;5.88;5.38;;;;;;;;;;520008;28;1229;-64
2023/01/28 00:44:01;;;;;;;5.70;5.20;;;;;;;;;;520747;28;1380;-64
2023/01/28 00:44:16;;;;;;;5.73;5.23;;;;;;;;;;517717;28;1284;-64
2023/01/28 00:44:31;;;;;;;5.72;5.22;;;;;;;;;;516822;28;1225;-64
2023/01/28 00:44:47;;;;;;;5.87;5.27;;;;;;;;;;519643;28;1107;-64
2023/01/28 00:45:02;;;;;;;5.53;5.03;;;;;;;;;;523610;28;1204;-64
2023/01/28 00:45:18;;;;;;;5.40;4.90;;;;;;;;;;525081;28;1238;-64
2023/01/28 00:45:33;;;;;;;5.60;5.10;;;;;;;;;;521973;28;1502;-64
2023/01/28 00:45:48;;;;;;;5.63;5.13;;;;;;;;;;522580;28;1221;-64
2023/01/28 00:46:06;;;;;;;5.57;5.07;;;;;;;;;;520498;28;1219;-64
2023/01/28 00:46:22;;;;;;;5.35;4.85;;;;;;;;;;521694;28;1444;-64
2023/01/28 00:46:38;;;;;;;5.38;4.88;;;;;;;;;;519572;28;1496;-64
2023/01/28 00:46:53;;;;;;;5.47;4.97;;;;;;;;;;519387;28;1270;-64
2023/01/28 00:47:08;;;;;;;5.53;5.03;;;;;;;;;;519460;28;1207;-64
2023/01/28 00:47:24;;;;;;;5.53;5.03;;;;;;;;;;521134;28;1279;-64
2023/01/28 00:47:39;;;;;;;5.50;5.00;;;;;;;;;;520120;28;1398;-64
2023/01/28 00:47:54;;;;;;;5.60;5.10;;;;;;;;;;523781;28;1283;-64
2023/01/28 00:48:09;;;;;;;5.60;5.10;;;;;;;;;;522789;28;1345;-64
2023/01/28 00:48:25;;;;;;;5.40;4.90;;;;;;;;;;521052;28;1339;-64
2023/01/28 00:48:41;;;;;;;5.28;4.88;;;;;;;;;;519752;28;1503;-64
2023/01/28 00:48:57;;;;;;;5.40;4.90;;;;;;;;;;520409;28;1286;-64
2023/01/28 00:49:12;;;;;;;5.50;5.00;;;;;;;;;;520063;28;1319;-64
2023/01/28 00:49:27;;;;;;;5.43;4.93;;;;;;;;;;519551;28;1223;-64
2023/01/28 00:49:43;;;;;;;5.40;4.90;;;;;;;;;;521537;28;1419;-64
2023/01/28 00:49:58;;;;;;;5.38;4.88;;;;;;;;;;519721;28;1321;-64
2023/01/28 00:50:14;;;;;;;5.17;4.60;;;;;;;;;;520833;28;1259;-63
2023/01/28 00:50:29;;;;;;;5.30;4.80;;;;;;;;;;521340;28;1086;-63
2023/01/28 00:50:44;;;;;;;5.83;5.03;;;;;;;;;;520180;28;1183;-63
2023/01/28 00:51:00;;;;;;;5.80;5.10;;;;;;;;;;523383;28;1507;-64
2023/01/28 00:51:17;;;;;;;5.27;4.87;;;;;;;;;;522864;28;1284;-64
2023/01/28 00:51:32;;;;;;;5.18;4.78;;;;;;;;;;523752;28;1104;-63
2023/01/28 00:51:48;;;;;;;5.40;4.90;;;;;;;;;;524679;28;1226;-63
2023/01/28 00:52:03;;;;;;;5.50;5.00;;;;;;;;;;522035;28;1328;-63
2023/01/28 00:52:19;;;;;;;5.55;4.97;;;;;;;;;;521581;28;1310;-63
2023/01/28 00:52:34;;;;;;;5.50;4.80;;;;;;;;;;523283;28;1210;-64
2023/01/28 00:52:49;;;;;;;5.27;4.70;;;;;;;;;;522472;28;1440;-65
2023/01/28 00:53:05;;;;;;;5.20;4.70;;;;;;;;;;521578;28;1298;-65
2023/01/28 00:53:20;;;;;;;5.33;4.83;;;;;;;;;;522079;28;1341;-65
2023/01/28 00:53:37;;;;;;;5.47;4.97;;;;;;;;;;525383;28;1389;-65
2023/01/28 00:53:52;;;;;;;5.40;4.90;;;;;;;;;;523279;28;1316;-65
2023/01/28 00:54:11;;;;;;;5.38;4.88;;;;;;;;;;523413;28;1349;-65
2023/01/28 00:54:26;;;;;;;5.13;4.68;;;;;;;;;;520631;28;1465;-64
2023/01/28 00:54:41;;;;;;;5.33;4.83;;;;;;;;;;519005;28;1576;-64
2023/01/28 00:54:56;;;;;;;5.60;5.00;;;;;;;;;;519646;28;1239;-64
2023/01/28 00:55:12;;;;;;;5.53;5.03;;;;;;;;;;518331;28;1372;-64
2023/01/28 00:55:28;;;;;;;5.80;4.95;;;;;;;;;;518316;28;1062;-64
2023/01/28 00:55:43;;;;;;;5.60;4.80;;;;;;;;;;517082;28;1208;-64
2023/01/28 00:55:59;;;;;;;5.60;5.10;;;;;;;;;;519712;28;1207;-64
2023/01/28 00:56:16;;;;;;;5.80;5.30;;;;;;;;;;519116;28;1395;-64
2023/01/28 00:56:31;;;;;;;5.53;5.03;;;;;;;;;;520949;28;1402;-63
2023/01/28 00:56:47;;;;;;;5.43;4.93;;;;;;;;;;520105;28;1364;-64
2023/01/28 00:57:02;;;;;;;5.53;5.03;;;;;;;;;;520397;28;1195;-64
2023/01/28 00:57:17;;;;;;;5.40;4.90;;;;;;;;;;519219;28;1247;-64
2023/01/28 00:57:33;;;;;;;5.27;4.87;;;;;;;;;;519443;28;1408;-64
2023/01/28 00:57:48;;;;;;;5.57;5.07;;;;;;;;;;522163;28;1307;-64
2023/01/28 00:58:03;;;;;;;5.80;5.30;;;;;;;;;;521292;28;1218;-64
2023/01/28 00:58:19;;;;;;;5.80;5.30;;;;;;;;;;522964;28;1226;-64
2023/01/28 00:58:34;;;;;;;5.82;5.28;;;;;;;;;;524411;28;2043;-64
2023/01/28 00:58:50;;;;;;;6.00;5.40;;;;;;;;;;522373;28;1211;-64
2023/01/28 00:59:05;;;;;;;5.63;5.13;;;;;;;;;;521575;28;1312;-64
2023/01/28 00:59:20;;;;;;;5.70;5.20;;;;;;;;;;519451;28;1220;-64
2023/01/28 00:59:36;;;;;;;5.57;5.07;;;;;;;;;;521485;28;1283;-64
2023/01/28 00:59:51;;;;;;;5.40;4.90;;;;;;;;;;519598;28;1198;-64
2023/01/28 01:00:07;;;;;;;5.37;4.93;;;;;;;;;;520796;28;1317;-64
2023/01/28 01:00:25;;;;;;;5.40;4.90;;;;;;;;;;521564;28;1214;-65
2023/01/28 01:00:41;;;;;;;5.30;4.80;;;;;;;;;;519796;28;1349;-65
2023/01/28 01:00:56;;;;;;;5.47;4.97;;;;;;;;;;523134;28;1272;-65
2023/01/28 01:01:11;;;;;;;5.30;4.80;;;;;;;;;;522777;28;1176;-64
2023/01/28 01:01:27;;;;;;;5.13;4.63;;;;;;;;;;522518;28;1361;-65
2023/01/28 01:01:43;;;;;;;5.32;4.85;;;;;;;;;;517651;28;1297;-65
2023/01/28 01:02:10;;;;;;;5.55;5.05;;;;;;;;;;521658;28;1261;-65
2023/01/28 01:02:26;;;;;;;5.20;4.70;;;;;;;;;;518518;28;1510;-65
2023/01/28 01:02:41;;;;;;;5.20;4.70;;;;;;;;;;516628;28;1253;-64
2023/01/28 01:02:56;;;;;;;5.43;4.93;;;;;;;;;;518933;28;1324;-65
2023/01/28 01:03:12;;;;;;;5.40;4.90;;;;;;;;;;517743;28;1392;-64
2023/01/28 01:03:27;;;;;;;5.33;4.83;;;;;;;;;;519646;28;1207;-65
2023/01/28 01:03:43;;;;;;;5.60;5.00;;;;;;;;;;518471;28;1275;-64
2023/01/28 01:04:01;;;;;;;5.30;4.80;;;;;;;;;;521370;28;1271;-64
2023/01/28 01:04:25;;;;;;;4.97;4.57;;;;;;;;;;516575;28;1287;-64
2023/01/28 01:04:40;;;;;;;5.40;4.90;;;;;;;;;;517820;28;1326;-64
2023/01/28 01:04:59;;;;;;;5.45;4.95;;;;;;;;;;521486;28;1519;-65
2023/01/28 01:05:14;;;;;;;5.20;4.80;;;;;;;;;;521184;28;1393;-65
2023/01/28 01:05:29;;;;;;;5.10;4.70;;;;;;;;;;520438;28;1203;-65
2023/01/28 01:05:45;;;;;;;5.03;4.63;;;;;;;;;;518566;28;1459;-65
2023/01/28 01:06:01;;;;;;;5.20;4.70;;;;;;;;;;518831;28;1099;-65
2023/01/28 01:06:16;;;;;;;5.13;4.63;;;;;;;;;;519049;28;1238;-65
2023/01/28 01:06:34;;;;;;;5.20;4.70;;;;;;;;;;518840;28;1528;-65
2023/01/28 01:06:49;;;;;;;5.13;4.63;;;;;;;;;;517992;28;983;-65
2023/01/28 01:07:05;;;;;;;5.20;4.70;;;;;;;;;;518826;28;1180;-65
2023/01/28 01:07:31;;;;;;;5.25;4.78;;;;;;;;;;521537;28;1207;-65
2023/01/28 01:07:46;;;;;;;5.13;4.63;;;;;;;;;;519075;28;1476;-65
2023/01/28 01:08:02;;;;;;;5.13;4.63;;;;;;;;;;521064;28;1239;-65
2023/01/28 01:08:17;;;;;;;5.00;4.50;;;;;;;;;;521234;28;1270;-65
2023/01/28 01:08:38;;;;;;;4.78;4.38;;;;;;;;;;520438;28;1254;-65
2023/01/28 01:08:54;;;;;;;4.70;4.30;;;;;;;;;;521542;28;1525;-65
2023/01/28 01:09:10;;;;;;;4.63;4.23;;;;;;;;;;520982;28;1325;-65
2023/01/28 01:09:25;;;;;;;4.72;4.32;;;;;;;;;;517538;28;1459;-65
2023/01/28 01:09:41;;;;;;;4.90;4.50;;;;;;;;;;521370;28;1183;-64
2023/01/28 01:10:05;;;;;;;4.80;4.40;;;;;;;;;;521454;28;1251;-64
2023/01/28 01:10:21;;;;;;;4.80;4.40;;;;;;;;;;522210;28;1498;-65
2023/01/28 01:10:37;;;;;;;4.70;4.30;;;;;;;;;;520368;28;1391;-65
2023/01/28 01:10:57;;;;;;;4.60;4.20;;;;;;;;;;523820;28;1286;-64
2023/01/28 01:11:13;;;;;;;5.00;4.50;;;;;;;;;;523828;28;1199;-65
2023/01/28 01:11:28;;;;;;;4.90;4.47;;;;;;;;;;522644;28;1353;-65
2023/01/28 01:11:43;;;;;;;4.77;4.37;;;;;;;;;;522544;28;1060;-65
2023/01/28 01:11:58;;;;;;;4.83;4.40;;;;;;;;;;521925;28;1245;-65
2023/01/28 01:12:14;;;;;;;4.97;4.47;;;;;;;;;;525025;28;1145;-65
2023/01/28 01:12:29;;;;;;;4.87;4.43;;;;;;;;;;525334;28;1093;-65
2023/01/28 01:12:46;;;;;;;4.90;4.50;;;;;;;;;;523383;28;1278;-65
2023/01/28 01:13:02;;;;;;;4.97;4.57;;;;;;;;;;520837;28;1298;-65
2023/01/28 01:13:17;;;;;;;5.03;4.63;;;;;;;;;;519393;28;1256;-65
2023/01/28 01:13:33;;;;;;;4.90;4.50;;;;;;;;;;518768;28;1072;-65
2023/01/28 01:13:54;;;;;;;4.95;4.47;;;;;;;;;;519288;28;1396;-65
2023/01/28 01:14:10;;;;;;;4.70;4.30;;;;;;;;;;518810;28;1398;-64
2023/01/28 01:14:25;;;;;;;4.65;4.25;;;;;;;;;;518590;28;1491;-64
2023/01/28 01:14:40;;;;;;;4.70;4.30;;;;;;;;;;521139;28;1236;-64
2023/01/28 01:14:56;;;;;;;4.80;4.40;;;;;;;;;;521408;28;1199;-65
2023/01/28 01:15:12;;;;;;;4.57;4.18;;;;;;;;;;519271;28;1300;-64
2023/01/28 01:15:27;;;;;;;4.45;4.05;;;;;;;;;;523613;28;1178;-65
2023/01/28 01:15:43;;;;;;;4.93;4.40;;;;;;;;;;523222;28;1372;-65
2023/01/28 01:16:02;;;;;;;5.00;4.50;;;;;;;;;;523084;28;1230;-65
2023/01/28 01:16:18;;;;;;;4.70;4.30;;;;;;;;;;523399;28;1330;-65
2023/01/28 01:16:35;;;;;;;4.70;4.30;;;;;;;;;;520268;28;1219;-65
2023/01/28 01:16:50;;;;;;;4.63;4.22;;;;;;;;;;520969;28;1422;-65
2023/01/28 01:17:05;;;;;;;4.87;4.47;;;;;;;;;;520987;28;1597;-65
2023/01/28 01:17:20;;;;;;;4.85;4.40;;;;;;;;;;516716;28;1262;-65
2023/01/28 01:17:37;;;;;;;4.60;4.20;;;;;;;;;;518645;28;1195;-65
2023/01/28 01:17:52;;;;;;;4.60;4.20;;;;;;;;;;523085;28;1314;-65
2023/01/28 01:18:08;;;;;;;4.77;4.37;;;;;;;;;;521354;28;1418;-65
2023/01/28 01:18:23;;;;;;;4.80;4.40;;;;;;;;;;523323;28;1460;-65
2023/01/28 01:18:41;;;;;;;4.50;4.10;;;;;;;;;;519693;28;1995;-65
2023/01/28 01:18:58;;;;;;;4.45;4.05;;;;;;;;;;519909;28;1325;-65
2023/01/28 01:19:13;;;;;;;4.50;4.10;;;;;;;;;;519524;28;1397;-65
2023/01/28 01:19:28;;;;;;;4.40;4.00;;;;;;;;;;519696;28;1172;-65
2023/01/28 01:19:44;;;;;;;4.40;4.00;;;;;;;;;;518493;28;1456;-65
2023/01/28 01:19:59;;;;;;;4.72;4.32;;;;;;;;;;521371;28;1300;-65
2023/01/28 01:20:19;;;;;;;4.87;4.47;;;;;;;;;;519704;28;1501;-65
2023/01/28 01:20:38;;;;;;;4.68;4.28;;;;;;;;;;520106;28;1262;-65
2023/01/28 01:20:57;;;;;;;4.60;4.20;;;;;;;;;;519624;28;1302;-65
2023/01/28 01:21:16;;;;;;;4.63;4.22;;;;;;;;;;520559;28;1330;-65
2023/01/28 01:21:31;;;;;;;4.70;4.30;;;;;;;;;;520559;28;1369;-65
2023/01/28 01:21:49;;;;;;;4.67;4.27;;;;;;;;;;521594;28;1257;-65
2023/01/28 01:22:04;;;;;;;4.57;4.18;;;;;;;;;;522634;28;1392;-65
2023/01/28 01:22:19;;;;;;;4.70;4.30;;;;;;;;;;520740;28;1285;-65
2023/01/28 01:22:35;;;;;;;4.80;4.40;;;;;;;;;;520929;28;1175;-65
2023/01/28 01:22:51;;;;;;;4.65;4.25;;;;;;;;;;521644;28;1267;-65
2023/01/28 01:23:06;;;;;;;4.57;4.18;;;;;;;;;;516700;28;1503;-65
2023/01/28 01:23:21;;;;;;;4.60;4.20;;;;;;;;;;519190;28;1078;-65
2023/01/28 01:23:37;;;;;;;4.53;4.13;;;;;;;;;;521574;28;1313;-65
2023/01/28 01:23:53;;;;;;;4.60;4.20;;;;;;;;;;519789;28;1294;-65
2023/01/28 01:24:08;;;;;;;4.80;4.40;;;;;;;;;;520386;28;1206;-65
2023/01/28 01:24:23;;;;;;;4.60;4.20;;;;;;;;;;520974;28;1188;-65
2023/01/28 01:24:39;;;;;;;4.47;4.07;;;;;;;;;;524233;28;1451;-65
2023/01/28 01:24:54;;;;;;;4.47;4.07;;;;;;;;;;525157;28;1236;-65
2023/01/28 01:25:11;;;;;;;4.50;4.10;;;;;;;;;;523112;28;1352;-65
2023/01/28 01:25:26;;;;;;;4.70;4.20;;;;;;;;;;522332;28;1240;-64
2023/01/28 01:25:41;;;;;;;4.63;4.20;;;;;;;;;;518833;28;1206;-65
2023/01/28 01:25:57;;;;;;;4.57;4.18;;;;;;;;;;519281;28;1327;-65
2023/01/28 01:26:13;;;;;;;4.45;4.05;;;;;;;;;;519147;28;1227;-65
2023/01/28 01:26:28;;;;;;;4.57;4.17;;;;;;;;;;520538;28;1358;-65
2023/01/28 01:26:44;;;;;;;4.70;4.30;;;;;;;;;;523356;28;1423;-65
2023/01/28 01:26:59;;;;;;;4.80;4.30;;;;;;;;;;522883;28;1081;-65
2023/01/28 01:27:14;;;;;;;4.63;4.22;;;;;;;;;;523648;28;1420;-65
2023/01/28 01:27:31;;;;;;;4.60;4.20;;;;;;;;;;522643;28;1194;-65
2023/01/28 01:27:48;;;;;;;4.80;4.40;;;;;;;;;;521141;28;1264;-65
2023/01/28 01:28:03;;;;;;;4.65;4.25;;;;;;;;;;521881;28;1270;-64
2023/01/28 01:28:20;;;;;;;4.70;4.30;;;;;;;;;;523977;28;1222;-65
2023/01/28 01:28:36;;;;;;;4.50;4.10;;;;;;;;;;522576;28;1361;-65
2023/01/28 01:28:51;;;;;;;4.68;4.28;;;;;;;;;;522869;28;1242;-64
2023/01/28 01:29:08;;;;;;;4.63;4.22;;;;;;;;;;519665;28;1346;-64
2023/01/28 01:29:23;;;;;;;4.50;4.10;;;;;;;;;;519366;28;1397;-65
2023/01/28 01:29:39;;;;;;;4.60;4.20;;;;;;;;;;522017;28;1388;-65
2023/01/28 01:29:54;;;;;;;4.60;4.20;;;;;;;;;;521171;28;1263;-65
2023/01/28 01:30:11;;;;;;;4.50;4.10;;;;;;;;;;518004;28;1452;-65
2023/01/28 01:30:26;;;;;;;4.45;4.05;;;;;;;;;;515894;28;1545;-65
2023/01/28 01:30:41;;;;;;;4.60;4.20;;;;;;;;;;521364;28;1309;-65
2023/01/28 01:31:18;;;;;;;4.60;4.20;;;;;;;;;;521194;28;1299;-65
2023/01/28 01:31:33;;;;;;;4.60;4.20;;;;;;;;;;518923;28;1447;-65
2023/01/28 01:31:49;;;;;;;4.60;4.20;;;;;;;;;;518678;28;1306;-64
2023/01/28 01:32:04;;;;;;;4.80;4.30;;;;;;;;;;519961;28;1280;-64
2023/01/28 01:32:21;;;;;;;4.70;4.30;;;;;;;;;;520005;28;1313;-64
2023/01/28 01:32:36;;;;;;;4.70;4.30;;;;;;;;;;518257;28;1299;-65
2023/01/28 01:32:51;;;;;;;4.57;4.18;;;;;;;;;;520923;28;1287;-65
2023/01/28 01:33:07;;;;;;;4.57;4.17;;;;;;;;;;521767;28;1328;-65
2023/01/28 01:33:22;;;;;;;4.53;4.13;;;;;;;;;;522854;28;1625;-65
2023/01/28 01:33:38;;;;;;;4.57;4.17;;;;;;;;;;522190;28;1260;-65
2023/01/28 01:33:54;;;;;;;4.65;4.25;;;;;;;;;;523309;28;1361;-65
2023/01/28 01:34:09;;;;;;;4.68;4.28;;;;;;;;;;521506;28;1222;-64
2023/01/28 01:34:24;;;;;;;4.70;4.30;;;;;;;;;;523971;28;1197;-64
2023/01/28 01:34:40;;;;;;;4.80;4.40;;;;;;;;;;522393;28;1391;-65
2023/01/28 01:34:55;;;;;;;4.70;4.30;;;;;;;;;;521517;28;1302;-65
2023/01/28 01:35:10;;;;;;;4.70;4.30;;;;;;;;;;518866;28;1262;-65
2023/01/28 01:35:26;;;;;;;4.70;4.30;;;;;;;;;;519652;28;1289;-64
2023/01/28 01:35:41;;;;;;;4.60;4.20;;;;;;;;;;519197;28;1003;-65
2023/01/28 01:35:57;;;;;;;4.80;4.40;;;;;;;;;;519842;28;1024;-64
2023/01/28 01:36:16;;;;;;;5.00;4.50;;;;;;;;;;520593;28;1254;-64
2023/01/28 01:36:31;;;;;;;4.63;4.22;;;;;;;;;;519534;28;1342;-65
2023/01/28 01:36:46;;;;;;;4.83;4.43;;;;;;;;;;521750;28;1118;-65
2023/01/28 01:37:02;;;;;;;4.97;4.57;;;;;;;;;;520059;28;1291;-65
2023/01/28 01:37:18;;;;;;;4.95;4.55;;;;;;;;;;521333;28;1201;-64
2023/01/28 01:37:34;;;;;;;5.30;4.80;;;;;;;;;;520057;28;1418;-64
2023/01/28 01:37:49;;;;;;;4.97;4.57;;;;;;;;;;521296;28;1587;-64
2023/01/28 01:38:05;;;;;;;4.70;4.30;;;;;;;;;;521692;28;1236;-64
2023/01/28 01:38:20;;;;;;;4.93;4.43;;;;;;;;;;519978;28;1513;-64
2023/01/28 01:38:36;;;;;;;4.75;4.35;;;;;;;;;;522814;28;1089;-63
2023/01/28 01:38:53;;;;;;;4.80;4.40;;;;;;;;;;523715;28;1165;-64
2023/01/28 01:39:11;;;;;;;5.20;4.70;;;;;;;;;;523681;28;1381;-64